• Join FlightAware (Why Join?)
  • Login
  • US Flag 
01:58PM EST


 

Airport Tracker/Info


-or-


 

Live Flight TrackerFlight Track Log ✈ XOJ793 ✈ 24-Jul-2014 ✈ KTEB - KBFI

Flight Track Log - Related Links

Times and Time Zones

All times are in EDT time to prevent confusion due to time zone crossing. See the XOJ793 flight status page for this flight to view local times or setup timezone preferences in your user account.

Time Position Orientation Groundspeed Altitude Reporting Facility
EDT Latitude Longitude Course Direction KTS MPH feet Rate Location/Type
08:44AM 40.8667 -74.0500 360° North 162 186 1,300  Level New York TRACON
08:45AM 40.9167 -74.0500 360° North 197 227 2,100 420 Climbing New York TRACON
08:46AM 40.9167 -74.1167 270° West 225 259 2,100 780 Level New York TRACON
08:47AM 40.9167 -74.2000 270° West 228 262 3,600 2,100 Climbing New York TRACON
08:49AM 40.9308 -74.3314 278° West 253 291 7,600 2,220 Climbing New York Center
08:50AM 41.0106 -74.3711 339° North 284 327 9,600 1,560 Climbing New York Center
08:51AM 41.0975 -74.3947 348° North 330 380 10,800 1,800 Climbing New York Center
08:52AM 41.1958 -74.3825 North 333 383 13,400 2,100 Climbing New York Center
08:53AM 41.2894 -74.3706 North 333 383 15,200 1,620 Climbing New York Center
08:54AM 41.3922 -74.3747 358° North 347 399 16,800 1,440 Climbing New York Center
08:55AM 41.4556 -74.4678 312° West 344 396 18,200 1,320 Climbing New York Center
08:56AM 41.5031 -74.5772 300° West 352 405 19,600 1,320 Climbing New York Center
08:57AM 41.5525 -74.6942 299° West 359 413 21,000 1,320 Climbing New York Center
08:58AM 41.6044 -74.8144 300° West 370 426 22,400 1,440 Climbing New York Center
08:59AM 41.6667 -74.9633 299° West 386 444 24,100 1,440 Climbing New York Center
09:00AM 41.7206 -75.0892 300° West 390 449 25,500 1,320 Climbing New York Center
09:01AM 41.7750 -75.2175 300° West 395 455 26,900 1,260 Climbing New York Center
09:02AM 41.8303 -75.3472 300° West 401 461 28,200 1,260 Climbing New York Center
09:03AM 41.8850 -75.4797 299° West 404 465 29,600 1,440 Climbing New York Center
09:04AM 41.9514 -75.6381 299° West 407 468 31,300 1,140 Climbing New York Center
09:05AM 42.0081 -75.7742 299° West 420 483 32,000 420 Climbing New York Center
09:06AM 42.0728 -75.9292 299° West 446 513 32,200 600 Climbing New York Center
09:07AM 42.1342 -76.0811 299° West 461 531 33,300 1,260 Climbing New York Center
09:09AM 42.1886 -76.2300 296° West 451 519 34,900 1,560 Climbing New York Center
09:09AM 42.2261 -76.3519 293° West 439 505 36,200 1,380 Climbing Cleveland Center
09:10AM 42.2731 -76.4967 294° West 433 498 37,500 960 Climbing Cleveland Center
09:11AM 42.3189 -76.6428 293° West 426 490 38,300 780 Climbing Cleveland Center
09:12AM 42.3756 -76.8217 293° West 429 494 39,200 720 Climbing Cleveland Center
09:13AM 42.4222 -76.9700 293° West 429 494 39,800 480 Climbing Cleveland Center
09:14AM 42.4697 -77.1206 293° West 431 496 40,300 480 Climbing Cleveland Center
09:16AM 42.5197 -77.2706 294° West 436 502 40,800 480 Climbing Cleveland Center
09:17AM 42.5681 -77.4217 294° West 436 502 41,400 480 Climbing Cleveland Center
09:18AM 42.6172 -77.5758 293° West 435 501 41,900 360 Climbing Cleveland Center
09:19AM 42.6664 -77.7272 294° West 435 501 42,200 240 Climbing Cleveland Center
09:20AM 42.7197 -77.8942 294° West 453 521 42,500 240 Climbing Cleveland Center
09:21AM 42.7669 -78.0453 293° West 441 507 42,700 180 Climbing Cleveland Center
09:22AM 42.8242 -78.2297 293° West 441 507 42,900 120 Climbing Cleveland Center
09:23AM 42.8719 -78.3844 293° West 443 510 43,000  Climbing Cleveland Center
09:24AM 42.9211 -78.5400 293° West 446 513 43,000  Level Cleveland Center
09:25AM 42.9683 -78.6958 293° West 446 513 43,000  Level Cleveland Center
09:26AM 43.0175 -78.8542 293° West 451 519 43,000  Level Cleveland Center
09:27AM 43.0500 -78.9667 292° West 450 518 43,000  Level Toronto Center
09:28AM 43.1000 -79.1333 292° West 450 518 43,000  Level Toronto Center
09:29AM 43.1500 -79.2833 295° West 450 518 43,000  Level Toronto Center
09:30AM 43.2000 -79.4500 292° West 460 529 43,000  Level Toronto Center
09:31AM 43.2333 -79.6167 285° West 460 529 43,000  Level Toronto Center
09:32AM 43.2833 -79.7667 295° West 460 529 43,000  Level Toronto Center
09:33AM 43.3333 -79.9333 292° West 460 529 43,000  Level Toronto Center
09:34AM 43.3833 -80.1000 292° West 460 529 43,000  Level Toronto Center
09:35AM 43.4333 -80.2500 295° West 460 529 43,000  Level Toronto Center
09:36AM 43.4833 -80.4167 293° West 460 529 43,000  Level Toronto Center
09:37AM 43.5333 -80.5833 293° West 460 529 43,000  Level Toronto Center
09:38AM 43.5833 -80.7667 291° West 450 518 43,000  Level Toronto Center
09:39AM 43.6000 -80.9000 280° West 450 518 43,000  Level Toronto Center
09:40AM 43.6500 -81.0833 291° West 450 518 43,000  Level Toronto Center
09:41AM 43.7000 -81.2167 297° West 450 518 43,000  Level Toronto Center
09:42AM 43.7500 -81.3833 293° West 450 518 43,000  Level Toronto Center
09:43AM 43.8000 -81.5500 293° West 450 518 43,000  Level Toronto Center
09:44AM 43.8333 -81.7167 286° West 450 518 43,000  Level Toronto Center
09:45AM 43.8833 -81.9000 291° West 460 529 43,000  Level Toronto Center
09:46AM 43.9167 -82.0333 289° West 460 529 43,000  Level Toronto Center
09:47AM 43.9667 -82.2333 289° West 450 518 43,000  Level Toronto Center
09:48AM 44.0167 -82.3667 298° West 450 518 43,000  Level Toronto Center
09:49AM 44.0667 -82.5500 291° West 450 518 43,000  Level Toronto Center
09:50AM 44.0833 -82.7000 279° West 450 518 43,000  Level Toronto Center
09:51AM 44.1333 -82.8667 293° West 450 518 43,000  Level Toronto Center
09:52AM 44.1833 -83.0333 293° West 450 518 43,000  Level Toronto Center
09:53AM 44.2333 -83.2000 293° West 450 518 43,000  Level Toronto Center
09:54AM 44.2667 -83.3667 286° West 450 518 43,000  Level Toronto Center
09:54AM 44.3022 -83.4506 301° West 448 516 43,000  Level Minneapolis Center
09:55AM 44.3425 -83.6161 289° West 448 516 43,000  Level Minneapolis Center
09:56AM 44.3844 -83.7806 290° West 449 517 43,000  Level Minneapolis Center
09:57AM 44.4261 -83.9492 289° West 455 524 43,000  Level Minneapolis Center
09:58AM 44.4681 -84.1142 290° West 455 524 43,000  Level Minneapolis Center
09:59AM 44.5100 -84.2831 289° West 456 525 43,000  Level Minneapolis Center
10:00AM 44.5506 -84.4497 289° West 456 525 43,000  Level Minneapolis Center
10:01AM 44.5983 -84.6511 288° West 456 525 43,000  Level Minneapolis Center
10:02AM 44.6386 -84.8189 289° West 456 525 43,000  Level Minneapolis Center
10:03AM 44.6792 -84.9881 289° West 456 525 43,000  Level Minneapolis Center
10:04AM 44.7192 -85.1564 289° West 456 525 43,000  Level Minneapolis Center
10:05AM 44.7586 -85.3250 288° West 456 525 43,000  Level Minneapolis Center
10:06AM 44.7981 -85.4931 288° West 456 525 43,000  Level Minneapolis Center
10:07AM 44.8397 -85.6772 288° West 456 525 43,000  Level Minneapolis Center
10:08AM 44.8781 -85.8478 288° West 456 525 43,000  Level Minneapolis Center
10:09AM 44.9164 -86.0169 288° West 456 525 43,000  Level Minneapolis Center
10:11AM 44.9633 -86.2214 288° West 456 525 43,000  Level Minneapolis Center
10:12AM 45.0000 -86.3900 287° West 456 525 43,000  Level Minneapolis Center
10:13AM 45.0389 -86.5617 288° West 456 525 43,000  Level Minneapolis Center
10:14AM 45.0756 -86.7308 287° West 456 525 43,000  Level Minneapolis Center
10:15AM 45.1139 -86.9094 287° West 457 526 43,000  Level Minneapolis Center
10:16AM 45.1506 -87.0775 287° West 452 520 43,000  Level Minneapolis Center
10:17AM 45.1867 -87.2478 287° West 452 520 43,000  Level Minneapolis Center
10:18AM 45.2231 -87.4164 287° West 451 519 43,000  Level Minneapolis Center
10:19AM 45.2661 -87.6200 287° West 451 519 43,000  Level Minneapolis Center
10:21AM 45.3353 -87.9564 286° West 446 513 43,000  Level Minneapolis Center
10:22AM 45.3706 -88.1278 286° West 447 514 43,000  Level Minneapolis Center
10:23AM 45.4097 -88.3200 286° West 447 514 43,000  Level Minneapolis Center
10:24AM 45.4442 -88.4922 286° West 447 514 43,000  Level Minneapolis Center
10:25AM 45.4783 -88.6642 286° West 448 516 43,000  Level Minneapolis Center
10:26AM 45.5119 -88.8344 286° West 448 516 43,000  Level Minneapolis Center
10:27AM 45.5467 -89.0069 286° West 448 516 43,000  Level Minneapolis Center
10:28AM 45.5789 -89.1819 285° West 449 517 43,000  Level Minneapolis Center
10:29AM 45.6128 -89.3550 286° West 453 521 43,000  Level Minneapolis Center
10:30AM 45.6533 -89.5603 286° West 453 521 43,000  Level Minneapolis Center
10:31AM 45.6869 -89.7444 285° West 454 522 43,000  Level Minneapolis Center
10:32AM 45.7192 -89.9203 285° West 454 522 43,000  Level Minneapolis Center
10:33AM 45.7517 -90.0942 285° West 454 522 43,000  Level Minneapolis Center
10:34AM 45.7833 -90.2669 285° West 451 519 43,000  Level Minneapolis Center
10:35AM 45.8156 -90.4425 285° West 451 519 43,000  Level Minneapolis Center
10:36AM 45.8472 -90.6167 285° West 451 519 43,000  Level Minneapolis Center
10:37AM 45.8794 -90.7922 285° West 452 520 43,000  Level Minneapolis Center
10:38AM 45.9156 -91.0039 284° West 453 521 43,000  Level Minneapolis Center
10:39AM 45.9475 -91.1817 285° West 455 524 43,000  Level Minneapolis Center
10:40AM 45.9772 -91.3589 284° West 456 525 43,000  Level Minneapolis Center
10:44AM 46.0719 -91.9122 284° West 455 524 43,000  Level Minneapolis Center
10:45AM 46.1017 -92.0881 284° West 455 524 43,000  Level Minneapolis Center
10:46AM 46.1297 -92.2642 283° West 455 524 43,000  Level Minneapolis Center
10:47AM 46.1589 -92.4400 284° West 455 524 43,000  Level Minneapolis Center
10:48AM 46.1869 -92.6172 283° West 452 520 43,000  Level Minneapolis Center
10:49AM 46.1888 -92.7057 284° West  Level FlightAware Approximate
10:49AM 46.2183 -92.8239 282° West 454 522 43,000  Level Minneapolis Center
10:50AM 46.2472 -93.0025 283° West 454 522 43,000  Level Minneapolis Center
10:51AM 46.2761 -93.1808 283° West 454 522 43,000  Level Minneapolis Center
10:52AM 46.3031 -93.3611 282° West 455 524 43,000  Level Minneapolis Center
10:53AM 46.3303 -93.5397 283° West 455 524 43,000  Level Minneapolis Center
10:54AM 46.3625 -93.7539 282° West 455 524 43,000  Level Minneapolis Center
10:55AM 46.3886 -93.9314 282° West 455 524 43,000  Level Minneapolis Center
10:56AM 46.4150 -94.1100 282° West 455 524 43,000  Level Minneapolis Center
10:57AM 46.4411 -94.2914 282° West 454 522 43,000  Level Minneapolis Center
10:58AM 46.4669 -94.4736 282° West 458 527 43,000  Level Minneapolis Center
10:59AM 46.4933 -94.6578 282° West 461 531 43,000  Level Minneapolis Center
11:00AM 46.5244 -94.8808 282° West 469 540 43,000  Level Minneapolis Center
11:01AM 46.5500 -95.0661 281° West 468 539 43,000  Level Minneapolis Center
11:02AM 46.5747 -95.2503 281° West 468 539 43,000  Level Minneapolis Center
11:03AM 46.6031 -95.4558 281° West 468 539 43,000  Level Minneapolis Center
11:04AM 46.6283 -95.6453 281° West 473 544 43,000  Level Minneapolis Center
11:05AM 46.6525 -95.8333 281° West 473 544 43,000  Level Minneapolis Center
11:06AM 46.6758 -96.0214 280° West 473 544 43,000  Level Minneapolis Center
11:07AM 46.6992 -96.2103 280° West 473 544 43,000  Level Minneapolis Center
11:08AM 46.7278 -96.4356 281° West 473 544 43,000  Level Minneapolis Center
11:09AM 46.7522 -96.6239 281° West 473 544 43,000  Level Minneapolis Center
11:11AM 46.7744 -96.8164 280° West 474 545 43,000  Level Minneapolis Center
11:12AM 46.7972 -97.0053 280° West 475 547 43,000  Level Minneapolis Center
11:13AM 46.8192 -97.1944 280° West 475 547 43,000  Level Minneapolis Center
11:14AM 46.8419 -97.3858 280° West 475 547 43,000  Level Minneapolis Center
11:15AM 46.8633 -97.5767 279° West 475 547 43,000  Level Minneapolis Center
11:16AM 46.8894 -97.8083 279° West 477 549 43,000  Level Minneapolis Center
11:17AM 46.9114 -98.0019 279° West 478 550 43,000  Level Minneapolis Center
11:18AM 46.9322 -98.1969 279° West 479 551 43,000  Level Minneapolis Center
11:19AM 46.9528 -98.3914 279° West 480 552 43,000  Level Minneapolis Center
11:20AM 46.9733 -98.5850 279° West 480 552 43,000  Level Minneapolis Center
11:21AM 46.9939 -98.7803 279° West 480 552 43,000  Level Minneapolis Center
11:22AM 47.0131 -98.9739 278° West 480 552 43,000 -60 Level Minneapolis Center
11:23AM 47.0356 -99.2064 278° West 481 554 42,900  Descending Minneapolis Center
11:24AM 47.0544 -99.3947 278° West 475 547 43,000  Climbing Minneapolis Center
11:25AM 47.0725 -99.5797 278° West 465 535 43,000  Level Minneapolis Center
11:26AM 47.1056 -99.7575 285° West 458 527 43,000 180 Level Minneapolis Center
11:27AM 47.1625 -99.9206 297° West 452 520 43,400 420 Climbing Minneapolis Center
11:28AM 47.2183 -100.0842 297° West 451 519 43,900 480 Climbing Minneapolis Center
11:29AM 47.2844 -100.2828 296° West 451 519 44,400 480 Climbing Minneapolis Center
11:30AM 47.3275 -100.4561 290° West 451 519 44,900 240 Climbing Minneapolis Center
11:31AM 47.3642 -100.6386 287° West 462 532 45,000  Climbing Minneapolis Center
11:32AM 47.3850 -100.8297 279° West 469 540 45,000  Level Minneapolis Center
11:33AM 47.3964 -101.0206 275° West 470 541 45,000  Level Minneapolis Center
11:34AM 47.4097 -101.2536 275° West 473 544 45,000  Level Minneapolis Center
11:35AM 47.4225 -101.4469 276° West 474 545 45,000  Level Minneapolis Center
11:36AM 47.4347 -101.6392 275° West 474 545 45,000  Level Minneapolis Center
11:37AM 47.4433 -101.8300 274° West 473 544 45,000  Level Minneapolis Center
11:38AM 47.4539 -102.0222 275° West 473 544 45,000  Level Minneapolis Center
11:39AM 47.4656 -102.2156 275° West 473 544 45,000  Level Minneapolis Center
11:41AM 47.4808 -102.4450 276° West 472 543 45,000  Level Minneapolis Center
11:41AM 47.4853 -102.5597 273° West 472 543 45,000 -60 Level Salt Lake Center
11:42AM 47.4961 -102.7525 275° West 472 543 44,900  Descending Salt Lake Center
11:43AM 47.5064 -102.9447 275° West 472 543 45,000  Climbing Salt Lake Center
11:44AM 47.5164 -103.1722 274° West 468 539 45,000  Level Salt Lake Center
11:45AM 47.5250 -103.3606 274° West 464 534 45,000  Level Salt Lake Center
11:46AM 47.5331 -103.5500 274° West 464 534 45,000  Level Salt Lake Center
11:47AM 47.5403 -103.7436 273° West 463 533 45,000  Level Salt Lake Center
11:48AM 47.5478 -103.9425 273° West 466 536 45,000 -60 Level Salt Lake Center
11:49AM 47.5581 -104.1353 275° West 469 540 44,900  Descending Salt Lake Center
11:51AM 47.5667 -104.3222 274° West 464 534 45,000  Climbing Salt Lake Center
11:52AM 47.5736 -104.5106 273° West 462 532 45,000  Level Salt Lake Center
11:53AM 47.5817 -104.7356 273° West 461 531 45,000  Level Salt Lake Center
11:54AM 47.5878 -104.9228 273° West 461 531 45,000  Level Salt Lake Center
11:55AM 47.5947 -105.1089 273° West 459 528 45,000  Level Salt Lake Center
11:56AM 47.6033 -105.2958 274° West 458 527 45,000  Level Salt Lake Center
11:57AM 47.6089 -105.4831 273° West 458 527 45,000  Level Salt Lake Center
11:58AM 47.6153 -105.6731 273° West 459 528 45,000  Level Salt Lake Center
11:59AM 47.6208 -105.8992 272° West 459 528 45,000  Level Salt Lake Center
12:00PM 47.6258 -106.0872 272° West 459 528 45,000  Level Salt Lake Center
12:01PM 47.6303 -106.2725 272° West 457 526 45,000  Level Salt Lake Center
12:02PM 47.6331 -106.4539 271° West 446 513 45,000  Level Salt Lake Center
12:03PM 47.6378 -106.6353 272° West 445 512 45,000  Level Salt Lake Center
12:04PM 47.6397 -106.8175 271° West 444 511 45,000  Level Salt Lake Center
12:05PM 47.6442 -107.0361 272° West 444 511 45,000  Level Salt Lake Center
12:06PM 47.6478 -107.2217 272° West 445 512 45,000  Level Salt Lake Center
12:07PM 47.6489 -107.4033 271° West 445 512 45,000  Level Salt Lake Center
12:08PM 47.6522 -107.5989 272° West 447 514 45,000  Level Salt Lake Center
12:09PM 47.6533 -107.7853 271° West 448 516 45,000  Level Salt Lake Center
12:10PM 47.6544 -107.9722 271° West 452 520 45,000  Level Salt Lake Center
12:11PM 47.6558 -108.1592 271° West 452 520 45,000  Level Salt Lake Center
12:12PM 47.6569 -108.3825 271° West 452 520 45,000  Level Salt Lake Center
12:13PM 47.6575 -108.5683 270° West 452 520 45,000  Level Salt Lake Center
12:14PM 47.6586 -108.7550 271° West 452 520 45,000  Level Salt Lake Center
12:15PM 47.6572 -108.9425 269° West 453 521 45,000  Level Salt Lake Center
12:16PM 47.6586 -109.1292 271° West 453 521 45,000  Level Salt Lake Center
12:17PM 47.6567 -109.3167 269° West 454 522 45,000  Level Salt Lake Center
12:18PM 47.6556 -109.5436 270° West 459 528 45,000  Level Salt Lake Center
12:19PM 47.6544 -109.7314 270° West 459 528 45,000  Level Salt Lake Center
12:21PM 47.6519 -109.9214 269° West 459 528 45,000  Level Salt Lake Center
12:22PM 47.6511 -110.1119 270° West 460 529 45,000  Level Salt Lake Center
12:23PM 47.6475 -110.3017 268° West 460 529 45,000  Level Salt Lake Center
12:24PM 47.6453 -110.4925 269° West 460 529 45,000  Level Salt Lake Center
12:25PM 47.6422 -110.7228 269° West 463 533 45,000  Level Salt Lake Center
12:26PM 47.6392 -110.9161 269° West 467 537 45,000  Level Salt Lake Center
12:27PM 47.6364 -111.1114 269° West 472 543 45,000  Level Salt Lake Center
12:28PM 47.6311 -111.3203 268° West 474 545 45,000  Level Salt Lake Center
12:29PM 47.6247 -111.5283 267° West 477 549 45,000  Level Salt Lake Center
12:30PM 47.6206 -111.7231 268° West 477 549 45,000  Level Salt Lake Center
12:31PM 47.6153 -111.9189 268° West 477 549 45,000  Level Salt Lake Center
12:32PM 47.6097 -112.1144 268° West 477 549 45,000  Level Salt Lake Center
12:33PM 47.6031 -112.3503 268° West 477 549 45,000  Level Salt Lake Center
12:34PM 47.5958 -112.5461 267° West 477 549 45,000  Level Salt Lake Center
12:35PM 47.5906 -112.7419 268° West 477 549 45,000  Level Salt Lake Center
12:36PM 47.5831 -112.9364 267° West 477 549 45,000  Level Salt Lake Center
12:37PM 47.5781 -113.1194 268° West 470 541 45,000  Level Salt Lake Center
12:38PM 47.5692 -113.3492 267° West 469 540 45,000  Level Salt Lake Center
12:39PM 47.5608 -113.5383 266° West 465 535 45,000  Level Salt Lake Center
12:40PM 47.5533 -113.7311 267° West 464 534 45,000  Level Salt Lake Center
12:41PM 47.5453 -113.9219 266° West 466 536 45,000  Level Salt Lake Center
12:42PM 47.5369 -114.1114 266° West 463 533 45,000  Level Salt Lake Center
12:43PM 47.5278 -114.3014 266° West 460 529 45,000 -60 Level Salt Lake Center
12:44PM 47.5186 -114.4914 266° West 461 531 44,900  Descending Salt Lake Center
12:45PM 47.5125 -114.7153 268° West 455 524 45,000  Climbing Salt Lake Center
12:46PM 47.5275 -114.9061 277° West 462 532 45,000  Level Salt Lake Center
12:47PM 47.5428 -115.0950 277° West 462 532 45,000  Level Salt Lake Center
12:48PM 47.5581 -115.2844 277° West 462 532 45,000  Level Salt Lake Center
12:50PM 47.5722 -115.4742 276° West 463 533 45,000  Level Salt Lake Center
12:51PM 47.5861 -115.6644 276° West 463 533 45,000  Level Salt Lake Center
12:52PM 47.6000 -115.8556 276° West 465 535 45,000  Level Salt Lake Center
12:53PM 47.6158 -116.0831 276° West 465 535 45,000  Level Salt Lake Center
12:54PM 47.6275 -116.2706 275° West 463 533 45,000 -60 Level Seattle Center
12:55PM 47.6431 -116.4997 276° West 463 533 44,900  Descending Seattle Center
12:56PM 47.6553 -116.6897 276° West 464 534 45,000  Climbing Seattle Center
12:57PM 47.6686 -116.8794 276° West 465 535 45,000  Level Seattle Center
12:58PM 47.6814 -117.0736 276° West 465 535 45,000  Level Seattle Center
12:59PM 47.6914 -117.2539 275° West 473 544 45,000  Level Seattle Center
01:00PM 47.7042 -117.4803 275° West 469 540 45,000  Level Seattle Center
01:01PM 47.7142 -117.6711 275° West 466 536 45,000  Level Seattle Center
01:02PM 47.7244 -117.8619 275° West 467 537 45,000  Level Seattle Center
01:03PM 47.7356 -118.0550 275° West 468 539 45,000  Level Seattle Center
01:04PM 47.7439 -118.2478 274° West 469 540 45,000  Level Seattle Center
01:05PM 47.7531 -118.4400 274° West 469 540 45,000  Level Seattle Center
01:06PM 47.7622 -118.6308 274° West 468 539 45,000  Level Seattle Center
01:07PM 47.7708 -118.8233 274° West 468 539 45,000 -840 Level Seattle Center
01:08PM 47.7817 -119.0536 274° West 468 539 43,300 -1,980 Descending Seattle Center
01:09PM 47.7903 -119.2508 274° West 480 552 41,000 -2,220 Descending Seattle Center
01:10PM 47.7967 -119.4436 273° West 474 545 38,800 -2,040 Descending Seattle Center
01:11PM 47.8053 -119.6381 274° West 474 545 36,900 -2,160 Descending Seattle Center
01:12PM 47.8117 -119.8339 273° West 478 550 34,400 -2,400 Descending Seattle Center
01:13PM 47.8183 -120.0178 273° West 453 521 32,100 -2,220 Descending Seattle Center
01:14PM 47.8253 -120.1883 274° West 420 483 30,000 -2,100 Descending Seattle Center
01:15PM 47.8294 -120.3583 272° West 413 475 27,800 -2,160 Descending Seattle Center
01:16PM 47.8392 -120.5319 275° West 422 486 25,600 -1,920 Descending Seattle Center
01:17PM 47.8444 -120.7403 272° West 421 484 23,900 -1,740 Descending Seattle Center
01:18PM 47.8475 -120.8814 272° West 394 453 22,100 -1,920 Descending Seattle Center
01:19PM 47.8528 -121.0400 273° West 389 448 20,000 -2,340 Descending Seattle Center
01:20PM 47.8544 -121.2300 271° West 385 443 17,400 -2,460 Descending Seattle Center
01:21PM 47.8594 -121.2761 279° West 370 426 16,600 -1,920 Descending Seattle Center
01:21PM 47.8647 -121.3694 275° West 340 391 15,500 -1,740 Descending Seattle Center
01:22PM 47.8683 -121.4303 275° West 324 373 14,700 -1,680 Descending Seattle Center
01:22PM 47.8725 -121.5011 275° West 324 373 13,800 -1,860 Descending Seattle Center
01:23PM 47.8786 -121.5903 276° West 311 358 12,500 -1,680 Descending Seattle Center
01:23PM 47.8814 -121.6256 277° West 304 350 12,100 -1,680 Descending Seattle Center
01:24PM 47.8792 -121.6958 267° West 268 308 11,000 -1,680 Descending Seattle Center
01:24PM 47.8644 -121.7325 239° Southwest 281 323 10,400 -1,560 Descending Seattle Center
01:25PM 47.8347 -121.7742 223° Southwest 287 330 9,600 -1,920 Descending Seattle Center
01:25PM 47.8017 -121.8175 221° Southwest 286 329 8,500 -1,980 Descending Seattle Center
01:26PM 47.7814 -121.8442 221° Southwest 284 327 7,800 -1,800 Descending Seattle Center
01:27PM 47.7492 -121.9072 233° Southwest 272 313 6,700 -1,560 Descending Seattle Center
01:27PM 47.7481 -121.9486 268° West 259 298 6,100 -1,500 Descending Seattle Center
01:28PM 47.7483 -122.0119 270° West 255 293 5,200 -1,500 Descending Seattle Center
01:28PM 47.7483 -122.0542 270° West 250 288 4,600 -1,500 Descending Seattle Center
01:29PM 47.7472 -122.1164 269° West 252 290 3,700 -1,440 Descending Seattle Center
01:29PM 47.7478 -122.1667 271° West 259 298 3,000 -1,200 Descending Seattle Center
01:30PM 47.7494 -122.2239 273° West 259 298 2,500 -720 Descending Seattle Center
01:30PM 47.7517 -122.2867 273° West 253 291 2,200 -300 Descending Seattle Center
01:31PM 47.7511 -122.3306 269° West 246 283 2,200  Level Seattle Center
01:31PM 47.7436 -122.3964 260° West 220 253 2,200  Level Seattle Center
01:32PM 47.7347 -122.4156 235° Southwest 220 253 2,200  Level Seattle Center
01:32PM 47.7081 -122.4228 190° South 215 247 2,200  Level Seattle Center
01:33PM 47.6747 -122.4197 176° South 212 244 2,200  Level Seattle Center
01:33PM 47.6531 -122.4069 158° South 227 261 2,200 -420 Level Seattle Center
01:34PM 47.6164 -122.3761 150° Southeast 214 246 1,800 -720 Descending Seattle Center
01:34PM 47.6019 -122.3628 148° Southeast 199 229 1,500 -900 Descending Seattle Center
01:35PM 47.5758 -122.3419 152° Southeast 159 183 900 -900 Descending Seattle Center
01:35PM 47.5628 -122.3317 152° Southeast 121 139 500 -720 Descending Seattle Center
01:36PM 47.5486 -122.3186 148° Southeast 124 143 200 -540 Descending Seattle Center